Impacts TAF Board
For situational awareness. Not to be used for flight planning purposes.
IDs:

KGJT - Grand Junction Rgnl, CO, US

Issued at 1738 UTC 21 May 2022
Updated at 2122 UTC 21 May 2022
Potential Impact None Slight Moderate High
Time2053Z 21/22Z 21/23Z 22/00Z 22/01Z 22/02Z 22/03Z 22/04Z 22/05Z 22/06Z 22/07Z 22/08Z 22/09Z 22/10Z>>
Type OBS PRVL PRVL PRVL PRVL PRVL PRVL PRVL PRVL PRVL PRVL PRVL PRVL PRVL
VIS 10 >6 >6 >6 >6 >6 >6 >6 >6 >6 >6 >6 >6 >6
CIG -- -- -- -- -- -- -- -- -- -- -- -- -- --
Cover CLR SCT SCT SCT SCT SCT SCT SCT SCT SCT SCT SCT SCT SCT
FltCat VFR VFR VFR VFR VFR VFR VFR VFR VFR VFR VFR VFR VFR VFR
WX -- -- -- -- -- -- -- -- -- -- -- -- -- --
WDir VRB 300 300 300 300 300 20 20 20 100 100 100 100 100
WSpd 3 10 10 10 10 10 8 8 8 6 6 6 6 6
WGst -- -- -- -- -- -- -- -- -- -- -- -- -- --
WSHgt -- -- -- -- -- -- -- -- -- -- -- -- -- --
WSDir -- -- -- -- -- -- -- -- -- -- -- -- -- --
WSSpd -- -- -- -- -- -- -- -- -- -- -- -- -- --
Raw TAF
KGJT 211738Z 2118/2218 18008KT P6SM SCT250
  FM212000 30010KT P6SM SCT250
  FM220300 02008KT P6SM SCT250
  FM220600 10006KT P6SM SCT250
  FM221200 14007KT P6SM SCT250


Raw METAR
KGJT 212053Z VRB03KT 10SM CLR 17/M09 A3005 RMK AO2 SLP147 T01671089 56015
KGJT 211953Z 26008KT 10SM CLR 17/M08 A3006 RMK AO2 SLP147 T01671078
KGJT 211853Z VRB03KT 10SM CLR 14/M08 A3007 RMK AO2 SLP156 T01441083

METAR Board
Radar Display
Forecast Discussion
For situational awareness. Not to be used for flight planning purposes.